x

9440910 - Toke Point, Wa (tokw1) Weather Station

8:30 - Sun 19th Oct 2014 All times are PDT. -7 hours from GMT.

  • Wind
    21mph, 26mph gusts
  • Air Temp 60°f
  • Sea Pressure 1005mb
  • 9440910 - Toke Point, Wa
  • 9440910 - Toke Point, Wa

More Historic Weather Station data

Upgrade to MSW Pro to gain access to the past 30 days of data for over 8000 Wavebouys and Weather Stations around the globe.

Join Pro

Comparision Forecast

View Surf forecast
   
dim. 10/19 8:30 21 26 mph 1005mb 60f
8:24 21 29 mph 1005mb 60f
8:18 23 29 mph 1005.1mb 60f
8:12 23 29 mph 1005.1mb 60f
8:06 24 29 mph 1005.2mb 60f
8:00 18 26 mph 1005.3mb 60f
7:54 20 26 mph 1005.3mb 60f
7:48 16 23 mph 1005.4mb 59f
7:42 18 24 mph 1005.5mb 59f
7:36 20 28 mph 1005.5mb 59f
7:30 16 24 mph 1005.6mb -
7:24 17 23 mph 1005.8mb -
7:18 13 17 mph 1005.8mb 58f
7:12 14 20 mph 1005.9mb 58f
7:06 13 17 mph 1005.9mb 58f
7:00 10 18 mph 1005.8mb 59f
6:54 15 22 mph 1005.8mb 59f
6:48 16 31 mph 1005.8mb 59f
6:42 28 38 mph 1005.6mb 60f
6:36 29 40 mph 1005.3mb 60f
6:30 31 38 mph 1005.3mb 60f
6:24 28 36 mph 1005.3mb 60f
6:18 28 38 mph 1005.4mb 60f
6:12 26 34 mph 1005.4mb 60f
6:06 26 32 mph 1005.4mb 60f
6:00 24 32 mph 1005.4mb 60f
5:54 25 34 mph 1005.4mb 60f
5:48 29 34 mph 1005.3mb 60f
5:42 28 36 mph 1005.3mb 61f
5:36 22 32 mph 1005.6mb 60f
5:30 25 30 mph 1005.6mb 60f
5:24 25 31 mph 1005.7mb 60f
5:18 22 25 mph 1005.8mb 60f
5:12 18 25 mph 1005.9mb 60f
5:06 24 29 mph 1005.9mb 60f
5:00 22 29 mph 1006mb 60f
4:54 23 30 mph 1006mb 60f
4:48 25 31 mph 1006mb 60f
4:42 25 30 mph 1006mb 60f
4:36 25 31 mph 1006mb 60f
4:30 28 36 mph 1006mb 60f
4:24 30 36 mph 1005.9mb 60f
4:18 25 33 mph 1005.9mb 61f
4:12 26 33 mph 1006mb 62f
4:06 24 33 mph 1005.9mb 63f
4:00 24 31 mph 1005.8mb 63f
3:54 26 36 mph 1005.7mb 63f
3:48 29 37 mph 1005.7mb 64f
3:42 25 37 mph 1005.8mb 64f
3:36 28 40 mph 1005.7mb 64f
3:30 24 36 mph 1005.7mb 64f
3:24 26 40 mph 1005.6mb 64f
3:18 28 34 mph 1005.4mb 65f
3:12 28 36 mph 1005.5mb 64f
3:06 28 38 mph 1005.6mb 65f
3:00 24 31 mph 1005.6mb 65f
2:54 23 29 mph 1005.6mb 65f
2:48 24 31 mph 1005.5mb 65f
2:42 29 38 mph 1005.5mb 66f
2:36 24 34 mph 1005.5mb 66f
2:30 22 28 mph 1005.5mb 65f
2:24 25 29 mph 1005.6mb 65f
2:18 26 32 mph 1005.6mb 65f
2:12 29 37 mph 1005.6mb 65f
2:06 25 31 mph 1005.8mb 65f
2:00 26 34 mph 1005.9mb 65f
1:54 25 30 mph 1006mb 65f
1:48 22 32 mph 1006.3mb 64f
1:42 23 33 mph 1006.4mb 65f
1:36 28 37 mph 1006.4mb 65f
1:30 22 29 mph 1006.6mb 64f
1:24 25 32 mph 1006.5mb 64f
1:18 26 31 mph 1006.5mb 64f
1:12 23 29 mph 1006.6mb 64f
1:06 25 31 mph 1006.7mb 64f
1:00 23 30 mph 1006.8mb 64f
12:54 24 32 mph 1006.8mb 64f
12:48 23 30 mph 1006.9mb 64f
12:42 22 31 mph 1006.9mb 64f
12:36 22 29 mph 1007mb 64f
12:30 23 28 mph 1007mb 64f
12:24 22 26 mph 1007mb 63f
12:18 23 29 mph 1007.1mb 64f
12:12 23 30 mph 1007mb 64f
12:06 20 25 mph 1007mb 63f
12:00 21 29 mph 1007mb 63f
11:54 22 25 mph 1007mb 63f
11:48 22 26 mph 1007mb 63f
11:42 20 23 mph 1007mb 62f
11:36 18 23 mph 1007mb 62f
11:30 20 25 mph 1007mb 63f
11:24 18 23 mph 1007mb 62f
11:18 21 25 mph 1007.1mb 62f
11:12 21 24 mph 1007.1mb 62f
11:06 21 26 mph 1007.1mb 62f
11:00 22 33 mph 1007mb 62f
10:54 22 31 mph 1006.9mb 62f
10:48 23 29 mph 1007mb 62f
10:42 25 30 mph 1007mb 62f
10:36 22 34 mph 1007.1mb 61f
10:30 24 34 mph 1007.1mb 61f
10:24 25 32 mph 1007mb 61f
10:18 25 31 mph 1007mb 61f
10:12 25 31 mph 1007mb 62f
10:06 25 34 mph 1006.9mb 62f
10:00 25 30 mph 1006.9mb 62f
9:54 26 31 mph 1006.9mb 62f
9:48 23 30 mph 1006.9mb 62f
9:42 22 30 mph 1006.9mb 62f
9:36 18 25 mph 1006.9mb 62f
9:30 21 24 mph 1006.8mb 62f
9:24 18 24 mph 1006.7mb 62f
9:18 20 26 mph 1006.7mb 62f
9:12 22 26 mph 1006.8mb 62f
9:06 24 30 mph 1006.6mb 62f
9:00 23 29 mph 1006.6mb 62f
8:54 24 29 mph 1006.7mb 62f
8:48 22 26 mph 1006.7mb 62f
8:42 21 30 mph 1006.7mb 62f
8:36 22 29 mph 1006.7mb 62f
8:30 20 23 mph 1006.7mb 62f
8:24 18 23 mph 1006.8mb 61f
8:18 16 25 mph 1006.9mb 61f
8:12 20 24 mph 1006.9mb 61f
8:06 22 26 mph 1006.8mb 61f
8:00 14 18 mph 1006.9mb 61f
7:54 16 21 mph 1006.8mb 61f
7:48 16 20 mph 1006.7mb 61f
7:42 17 22 mph 1006.7mb 61f
7:36 14 18 mph 1006.7mb 61f
7:30 10 16 mph 1006.7mb 61f
7:24 10 14 mph 1006.8mb 61f
7:18 9 13 mph 1006.7mb 61f
7:12 10 11 mph 1006.6mb 62f
7:06 10 14 mph 1006.6mb 62f
7:00 10 14 mph 1006.6mb 61f
6:54 10 14 mph 1006.6mb 62f
6:48 11 16 mph 1006.6mb 62f
6:42 11 16 mph 1006.6mb 62f
6:36 13 17 mph 1006.6mb 62f
6:30 16 18 mph 1006.5mb 62f
6:24 15 18 mph 1006.5mb 62f
6:18 13 15 mph 1006.6mb 61f
6:12 9 11 mph 1006.8mb 61f
6:06 9 11 mph 1006.9mb 61f
6:00 8 10 mph 1007mb 60f
5:54 9 13 mph 1007.1mb 61f
5:48 9 13 mph 1007mb 60f
5:42 11 15 mph 1007mb 60f
5:36 13 15 mph 1007.1mb 60f
5:30 15 18 mph 1007.1mb 60f
5:24 15 18 mph 1007.4mb 60f
5:18 14 17 mph 1007.3mb 60f
5:12  -  mph 1007.2mb 60f
5:06  -  mph 1007.3mb 60f
5:00  -  mph 1007.3mb 60f
2:06 13 15 mph 1008.1mb 61f
2:00 11 14 mph 1008.2mb 61f
1:54 14 15 mph 1008.2mb 61f
1:48 10 13 mph 1008.1mb 60f
1:42 11 15 mph 1008.2mb 61f
1:36 13 15 mph 1008.2mb 62f
1:30 10 14 mph 1008.4mb 61f
1:24 6 7 mph 1008.6mb 60f
1:18 6
mph
1008.6mb 60f
1:12 6 8 mph 1008.6mb 60f
1:06 8
mph
1008.6mb 60f
1:00 7 9 mph 1008.6mb 60f
12:54 7 9 mph 1008.7mb 60f
12:48 7
mph
1008.7mb 60f
12:42 6 7 mph 1008.7mb 60f
12:36 6
mph
1008.8mb 60f
12:30 5 6 mph 1008.8mb 61f
12:24 3 7 mph 1008.9mb 61f
12:18 5 7 mph 1008.9mb 61f
12:12 5 6 mph 1008.9mb 60f
12:06 1 5 mph 1008.9mb 60f
12:00 5 6 mph 1008.9mb 60f
sam. 10/18 11:54 3 6 mph 1008.9mb 60f
11:48 7 9 mph 1008.8mb 61f
11:42 8 9 mph 1008.7mb 61f
11:36 6 7 mph 1008.7mb 61f
11:30 7
mph
1008.6mb 61f
11:24 6 7 mph 1008.5mb 61f
11:18 7 8 mph 1008.5mb 61f
11:12 8 11 mph 1008.5mb 61f
11:06 8 11 mph 1008.5mb 61f
11:00 9 13 mph 1008.5mb 61f
10:54 11 14 mph 1008.5mb 61f
10:48 9 11 mph 1008.7mb 61f
10:42 10 13 mph 1008.8mb 62f
10:36 11 14 mph 1008.9mb 62f
10:30 10 13 mph 1008.9mb 62f
10:24 11 13 mph 1009mb 62f
10:18 11 13 mph 1009.1mb 61f
10:12 11 13 mph 1009.1mb 61f
10:06 10 13 mph 1009.2mb 61f
10:00 11 13 mph 1009.2mb 61f
9:54 10 13 mph 1009.2mb 61f
9:48 11 13 mph 1009.2mb 61f
9:42 9 10 mph 1009.3mb 61f
9:36 7 8 mph 1009.4mb 61f
9:30 7 8 mph 1009.6mb 61f
9:24 8 9 mph 1009.7mb 61f
9:18 9 11 mph 1009.8mb 62f
9:12 9 10 mph 1009.9mb 62f
9:06 9 10 mph 1010mb 62f
9:00 10 13 mph 1010.1mb 62f
8:54 10 11 mph 1010.2mb 62f
8:48 9
mph
1010.3mb 61f
8:42 7 8 mph 1010.4mb 61f
8:36 6
mph
1010.5mb 61f
8:30 5 6 mph 1010.6mb 61f
8:24 5
mph
1010.6mb 61f
8:18 5 7 mph 1010.7mb 61f
8:12 7
mph
1010.8mb 61f
8:06 7 8 mph 1010.8mb 61f
8:00 7 8 mph 1010.8mb 61f
7:54 8 9 mph 1010.8mb 62f
7:48 8 9 mph 1010.9mb 62f
7:42 8 9 mph 1011mb 62f
7:36 8 10 mph 1011mb 61f
7:30 8 9 mph 1011.1mb 61f
7:24 8 9 mph 1011.2mb 61f
7:18 7 8 mph 1011.3mb 61f
7:12 7 8 mph 1011.3mb 61f
7:06 7 8 mph 1011.3mb 61f
7:00 8 10 mph 1011.3mb 61f
6:54 8 10 mph 1011.4mb 62f
6:48 10 13 mph 1011.4mb 61f
6:42 11 14 mph 1011.5mb 61f
6:36 10 14 mph 1011.5mb 61f
6:30 11 14 mph 1011.6mb 61f
6:24 11 13 mph 1011.6mb 61f
6:18 11 14 mph 1011.7mb 61f
6:12 13 14 mph 1011.8mb 61f
6:06 11 15 mph 1011.8mb 61f
6:00 13 14 mph 1011.8mb 61f
5:54 10 13 mph 1011.9mb 61f
5:48 10 14 mph 1012mb 61f
5:42 13 15 mph 1012mb 61f
5:36 11 16 mph 1012.1mb 61f
5:30 13 16 mph 1012.1mb 61f
5:24 14 18 mph 1012.2mb 61f
5:18 15 20 mph 1012.2mb 62f
5:12 17 20 mph 1012.3mb 62f
5:06 13 15 mph 1012.4mb 62f
5:00 14 21 mph 1012.4mb 62f
4:54 14 17 mph 1012.4mb 62f
4:48 15 17 mph 1012.5mb 62f
4:42 17 21 mph 1012.6mb 62f
4:36 16 21 mph 1012.8mb 62f
4:30 17 20 mph 1012.8mb 62f
4:24 16 21 mph 1012.8mb 62f
4:18 14 16 mph 1012.9mb 61f
4:12 10 13 mph 1012.9mb 61f
4:06 10 14 mph 1013mb 61f
4:00 11 14 mph 1013mb 61f
3:54 11 14 mph 1013mb 61f
3:48 10 13 mph 1013.1mb 61f
3:42 13 14 mph 1013mb 61f
3:36 13 15 mph 1013.1mb 61f
3:30 10 15 mph 1013.1mb 61f
3:24 13 15 mph 1013.1mb 62f
3:18 13 15 mph 1013.1mb 62f
3:12 9 11 mph 1013.3mb 61f
3:06 6 10 mph 1013.2mb 62f
3:00 7 9 mph 1013.3mb 62f
2:54 6 10 mph 1013.3mb 62f
2:48 10 11 mph 1013.3mb 62f
2:42 7 10 mph 1013.3mb 62f
2:36 8 13 mph 1013.3mb 62f
2:30 10 13 mph 1013.3mb 62f
2:24 11 15 mph 1013.4mb 62f
2:18 6 8 mph 1013.4mb 63f
2:12 5 7 mph 1013.4mb 63f
2:06 3 6 mph 1013.4mb 63f
2:00 6 9 mph 1013.5mb 63f
1:54  -  6 mph 1013.6mb 62f
1:48 3 6 mph 1013.6mb 62f
1:42 3 7 mph 1013.7mb 62f
1:36 3 7 mph 1013.7mb 62f
1:30 5 7 mph 1013.6mb 62f
1:24 6 7 mph 1013.6mb 62f
1:18 6 7 mph 1013.6mb 62f
1:12 6 7 mph 1013.6mb 62f
1:06 7 8 mph 1013.6mb 61f
1:00 8 9 mph 1013.6mb 61f
12:54 8 10 mph 1013.7mb 62f
12:48 7 8 mph 1013.7mb 62f
12:42 7 9 mph 1013.7mb 61f
12:36 9 11 mph 1013.6mb 61f
12:30 9 11 mph 1013.6mb 61f
12:24 10 11 mph 1013.7mb 61f
12:18 10 11 mph 1013.7mb 60f
12:12 9 11 mph 1013.7mb 61f
12:06 10 13 mph 1013.8mb 61f
12:00 9 14 mph 1013.7mb 61f
11:54 10 15 mph 1013.6mb 61f
11:48 14 18 mph 1013.5mb 61f
11:42 15 20 mph 1013.4mb 61f
11:36 11 15 mph 1013.5mb 61f
11:30 11 14 mph 1013.4mb 61f
11:24 10 13 mph 1013.4mb 61f
11:18 11 15 mph 1013.4mb 61f
11:12 13 16 mph 1013.4mb 61f
11:06 11 15 mph 1013.4mb 61f
11:00 10 14 mph 1013.4mb 61f
10:54 11 14 mph 1013.4mb 61f
10:48 10 13 mph 1013.4mb 60f
10:42 11 15 mph 1013.4mb 60f
10:36 13 14 mph 1013.4mb 60f
10:30 13 15 mph 1013.3mb 60f
10:24 11 15 mph 1013.3mb 60f
10:18 10 13 mph 1013.3mb 60f
10:12 10 13 mph 1013.4mb 60f
10:06 11 13 mph 1013.4mb 60f
10:00 9 13 mph 1013.3mb 60f
9:54 10 11 mph 1013.3mb 60f
9:48 10 11 mph 1013.3mb 60f
9:42 10 11 mph 1013.3mb 60f
9:36 9 10 mph 1013.2mb 60f
9:30 9 11 mph 1013.1mb 60f
9:24 10 13 mph 1013.1mb 60f
9:18 11 14 mph 1013.1mb 60f
9:12 9 13 mph 1013.1mb 60f
9:06 10 17 mph 1013.1mb 60f
9:00 14 18 mph 1013mb 60f
8:54 11 16 mph 1012.9mb 60f
8:48 14 15 mph 1012.9mb 60f
8:42 14 16 mph 1013mb 60f
8:36 9 13 mph 1013mb 60f
8:30 10 11 mph 1012.9mb 60f
8:24 8 11 mph 1013mb 60f
8:18 9 11 mph 1012.9mb 60f
8:12 10 11 mph 1012.7mb 60f
8:06 10 11 mph 1012.6mb 60f
8:00 9 11 mph 1012.5mb 60f
7:54 10 11 mph 1012.5mb 60f
7:48 9 11 mph 1012.4mb 60f
7:42 10 13 mph 1012.4mb 60f
7:36 10 13 mph 1012.4mb 60f
7:30 11 13 mph 1012.2mb 60f
7:24 11 13 mph 1012.2mb 60f
7:18 10 11 mph 1012.2mb 60f
7:12 10 11 mph 1012.3mb 60f
7:06 9 11 mph 1012.3mb 60f
7:00 9 11 mph 1012.3mb 60f
6:54 10 11 mph 1012.1mb 60f
6:48 10 13 mph 1012mb 60f
6:42 10 14 mph 1012.1mb 60f
6:36 11 13 mph 1012mb 60f
6:30 11 14 mph 1012mb 60f
6:24 13 14 mph 1011.9mb 60f
6:18 13
mph
1011.8mb 60f
6:12 10 13 mph 1012mb 60f
6:06 10 13 mph 1012.1mb 60f
6:00 9 13 mph 1012mb 60f
5:54 10 11 mph 1012mb 60f
5:48 10 11 mph 1011.9mb 60f
5:42 11 13 mph 1012mb 60f
5:36 11 14 mph 1011.9mb 60f
5:30 11 14 mph 1011.9mb 60f
5:24 11 14 mph 1011.9mb 60f
5:18 11 15 mph 1011.9mb 60f
5:12 13 14 mph 1011.9mb 60f
5:06 11 14 mph 1011.9mb 60f
5:00 11 14 mph 1011.8mb 60f
4:54 13 15 mph 1011.8mb 60f
4:48 13 14 mph 1011.8mb 60f
4:42 10 15 mph 1011.7mb 60f
4:36 13 15 mph 1011.7mb 60f
4:30 11 14 mph 1011.6mb 60f
4:24 11 14 mph 1011.6mb 60f
4:18 11 13 mph 1011.6mb 60f
4:12 9 13 mph 1011.5mb 60f
4:06 10 13 mph 1011.5mb 60f
4:00 10 15 mph 1011.5mb 60f
3:54 13 16 mph 1011.5mb 60f
3:48 13 17 mph 1011.5mb 60f
3:42 14 17 mph 1011.5mb 60f
3:36 14 17 mph 1011.4mb 60f
3:30 14 18 mph 1011.4mb 60f
3:24 11 15 mph 1011.4mb 60f
3:18 11 16 mph 1011.3mb 60f
3:12 14 18 mph 1011.2mb 60f
3:06 11 17 mph 1011.2mb 60f
3:00 13 18 mph 1011.2mb 60f
2:54 14 18 mph 1011.1mb 60f
2:48 14 17 mph 1011.1mb 60f
2:42 14 17 mph 1011.1mb 60f
2:36 13 17 mph 1011mb 60f
2:30 11 15 mph 1011mb 60f
2:24 13 15 mph 1011mb 60f
2:18 11 15 mph 1011mb 60f
2:12 13 16 mph 1010.9mb 60f
2:06 13 17 mph 1010.9mb 60f
2:00 14 16 mph 1010.8mb 60f
1:54 13 16 mph 1010.8mb 60f
1:48 14 18 mph 1010.7mb 60f
1:42 15 21 mph 1010.6mb 60f
1:36 13 16 mph 1010.6mb 60f
1:30 10 17 mph 1010.6mb 60f
1:24 11 16 mph 1010.6mb 60f
1:18 14 18 mph 1010.5mb 60f
1:12 14 17 mph 1010.4mb 60f
1:06 11 14 mph 1010.4mb 60f
1:00 11 15 mph 1010.4mb 60f
12:54 14 16 mph 1010.4mb 60f
12:48 14 17 mph 1010.3mb 60f
12:42 14 16 mph 1010.3mb 60f
12:36 14 16 mph 1010.2mb 60f
12:30 13 16 mph 1010.3mb 60f
12:24 14 20 mph 1010.3mb 60f
12:18 15 18 mph 1010.3mb 60f
12:12 15 18 mph 1010.3mb 60f
12:06 14 17 mph 1010.2mb 60f
12:00 14 18 mph 1010.2mb 60f
ven. 10/17 11:54 14 21 mph 1010.1mb 60f
11:48 13 16 mph 1010.1mb 60f
11:42 13 16 mph 1010.1mb 60f
11:36 13 16 mph 1010.1mb 60f
11:30 11 16 mph 1010mb 60f
11:24 14 17 mph 1009.9mb 60f
11:18 13 20 mph 1009.9mb 59f
11:12 15 18 mph 1009.8mb 59f
11:06 14 16 mph 1009.8mb 59f
11:00 13 18 mph 1009.8mb 59f
10:54 17 21 mph 1009.7mb 59f
10:48 15 20 mph 1009.6mb 59f
10:42 15 20 mph 1009.6mb 59f
10:36 15 18 mph 1009.5mb 59f
10:30 15 20 mph 1009.4mb 59f
10:24 17 22 mph 1009.3mb 59f
10:18 18 23 mph 1009.2mb 59f
10:12 20 24 mph 1009.1mb 59f
10:06 21 23 mph 1009mb 59f
10:00 18 24 mph 1009mb 59f
9:54 18 24 mph 1008.9mb 59f
9:48 20 23 mph 1008.9mb 59f
9:42 20 24 mph 1008.8mb 59f
9:36 20 23 mph 1008.8mb 59f
9:30 20 22 mph 1008.7mb 59f
9:24 20 25 mph 1008.7mb 60f
9:18 18 23 mph 1008.6mb 60f
9:12 18 23 mph 1008.5mb 60f
9:06 20 24 mph 1008.5mb 60f
9:00 22 26 mph 1008.4mb 60f
8:54 23 29 mph 1008.3mb 60f
8:48 22 26 mph 1008.3mb 60f
8:42 22 25 mph 1008.2mb 60f
8:36 23 26 mph 1008.1mb 60f
8:30 24 28 mph - -
8:24 22 26 mph - -
8:12  -  mph - 60f
8:06  -  mph 1007.9mb 60f
8:00  -  mph 1008mb 60f
7:54 23 26 mph 1007.9mb 60f
7:48 22 26 mph 1008mb 60f
7:18  -  mph - 60f
7:12  -  mph - 60f
7:06  -  mph - 60f
7:00 22 28 mph 1007.4mb 60f
6:54 21 28 mph 1007.4mb 60f
6:48 22 29 mph 1007.3mb 60f
6:42 23 29 mph 1007.3mb 59f
6:36 22 29 mph 1007.3mb 59f
6:30 22 29 mph 1007.2mb 59f
6:24 23 28 mph 1007.2mb 59f
6:18 21 28 mph 1007.2mb 59f
6:12 21 28 mph 1007.1mb 59f
6:06 22 26 mph 1007.1mb 59f
6:00 21 25 mph 1007.1mb 59f
5:54 21 26 mph 1007.1mb 59f
5:48 22 28 mph 1007mb 59f
5:42 22 26 mph 1006.9mb 59f
5:36 24 26 mph 1006.9mb 59f
5:30 23 28 mph 1006.8mb 59f
5:24 24 31 mph 1006.7mb 59f
5:18 23 29 mph 1006.7mb 59f
5:12 25 30 mph 1006.6mb 60f
5:06 24 29 mph 1006.5mb 59f
5:00 26 30 mph 1006.5mb 59f
4:54 23 29 mph 1006.5mb 59f
4:48 24 29 mph 1006.5mb 59f
4:42 22 29 mph 1006.5mb 59f
4:36 23 30 mph 1006.4mb 59f
4:30 24 31 mph 1006.3mb 59f
4:24 24 31 mph 1006.3mb 59f
4:18 25 31 mph 1006.2mb 59f
4:12 24 31 mph 1006.2mb 60f
4:06 28 32 mph 1006mb 60f
4:00 25 36 mph 1006mb 60f
3:54 26 37 mph 1005.9mb 60f
3:48 28 34 mph 1005.8mb 60f
3:42 25 33 mph 1005.8mb 60f
3:36 28 36 mph 1005.7mb 59f
3:30 26 31 mph 1005.6mb 59f
3:24 29 33 mph 1005.5mb 59f
3:18 26 32 mph 1005.5mb 59f
3:12 28 33 mph 1005.4mb 59f
3:06 25 30 mph 1005.4mb 59f
3:00 23 30 mph 1005.5mb 58f
2:54 20 23 mph 1005.4mb 58f
2:48 18 22 mph 1005.4mb 57f
2:42 16 20 mph 1005.4mb 57f
2:36 17 21 mph 1005.3mb 57f
2:30 17 20 mph 1005.3mb 57f
2:24 16 20 mph 1005.4mb 57f
2:18 15 18 mph 1005.3mb 57f
2:12 16 18 mph 1005.3mb 57f
2:06 14 20 mph 1005.3mb 57f
2:00 16 22 mph 1005.3mb 57f
1:54 17 20 mph 1005.3mb 57f
1:48 16 20 mph 1005.2mb 57f
1:42 18 22 mph 1005.3mb 57f
1:36 21 25 mph 1005.2mb 58f
1:30 20 23 mph 1005.2mb 58f
1:24 17 21 mph 1005.2mb 58f
1:18 15 20 mph 1005.2mb 58f
1:12 16 22 mph 1005.2mb 58f
1:06 15 18 mph 1005.2mb 58f
1:00 15 18 mph 1005.3mb 58f
12:54 13 17 mph 1005.3mb 58f
12:48 16 18 mph 1005.2mb 58f
12:42 17 21 mph 1005.3mb 59f
12:36 17 22 mph 1005.2mb 59f
12:30 16 22 mph 1005.3mb 59f
12:24 23 25 mph 1005.2mb 60f
12:18 20 24 mph 1005.2mb 60f
12:12 21 24 mph 1005.2mb 60f
12:06 21 23 mph 1005.3mb 61f
12:00 17 23 mph 1005.3mb 61f
11:54 20 24 mph 1005.2mb 61f
11:48 18 24 mph 1005.1mb 61f
11:42 20 26 mph 1005.1mb 61f
11:36 20 24 mph 1005.1mb 62f
11:30 22 26 mph 1005.2mb 61f
11:24 18 26 mph 1005.1mb 62f
11:18 11 20 mph 1005.1mb 61f
11:12 10 13 mph 1005mb 59f
11:06 11 14 mph 1004.9mb 59f
11:00 14 15 mph 1004.9mb 59f
10:54 13 14 mph 1004.9mb 59f
10:48 14 15 mph 1004.9mb 58f
10:42 14 16 mph 1004.9mb 58f
10:36 15 17 mph 1004.9mb 58f
10:30 15 17 mph 1004.9mb 58f
10:24 15 17 mph 1004.9mb 58f
10:18 15 20 mph 1004.9mb 58f
10:12 16 20 mph 1004.9mb 58f
10:06 17 20 mph 1004.9mb 58f
10:00 17 22 mph 1004.9mb 58f
9:54 18 21 mph 1004.8mb 58f
9:48 18 21 mph 1004.8mb 58f
9:42 17 21 mph 1004.8mb 58f
9:36 18 21 mph 1004.9mb 58f
9:30 18 21 mph 1004.9mb 58f
9:24 16 18 mph 1005mb 57f
9:18 16 18 mph 1005.1mb 57f
9:12 15 17 mph 1005.2mb 57f
9:06 15 16 mph 1005.3mb 57f
9:00 15 17 mph 1005.4mb 57f
8:54 17 18 mph 1005.4mb 56f
8:48 14 17 mph 1005.5mb 57f
8:42 16 18 mph 1005.4mb 56f
8:36 17 21 mph 1005.4mb 56f
8:30 20 22 mph 1005.4mb 57f
8:24 20 22 mph 1005.3mb 57f
8:18 18 22 mph 1005.4mb 56f
8:12 18 22 mph 1005.5mb 56f
8:06 20 23 mph 1005.4mb 56f
8:00 20 22 mph 1005.4mb 56f
7:54 20 23 mph 1005.4mb 56f
7:48 20 22 mph 1005.3mb 56f
7:42 16 20 mph 1005.4mb 56f
7:36 17 21 mph 1005.6mb 56f
7:30 18 21 mph 1005.7mb 56f
7:24 18 20 mph 1005.9mb 56f
7:18 16 20 mph 1005.9mb 56f
7:12 17 20 mph 1006mb 56f
7:06 17 20 mph 1006mb 56f
7:00 17 20 mph 1006.1mb 56f
6:54 17 21 mph 1006.2mb 56f
6:48 17 20 mph 1006.2mb 56f
6:42 16 20 mph 1006.2mb 56f
6:36 17 20 mph 1006.2mb 56f
6:30 17 18 mph 1006.3mb 56f
6:24 16 17 mph 1006.4mb 56f
6:18 16 18 mph 1006.5mb 56f
6:12 16 20 mph 1006.5mb 56f
6:06 16 18 mph 1006.5mb 56f
6:00 16 18 mph 1006.6mb 56f
5:54 17 18 mph 1006.7mb 56f
5:48 16 20 mph 1006.7mb 56f
5:42 15 17 mph 1006.9mb 56f
5:36 17 18 mph 1006.9mb 56f
5:30 15 18 mph 1006.8mb 57f
5:24 16 18 mph 1006.8mb 57f
5:18 15 18 mph 1006.8mb 57f
5:12 16 18 mph 1006.9mb 57f
5:06 15 16 mph 1007.1mb 57f
5:00 14 16 mph 1007.2mb 57f
4:54 13 16 mph 1007.3mb 57f
4:48 14 16 mph 1007.3mb 57f
4:42 14 16 mph 1007.4mb 57f
4:36 15 16 mph 1007.3mb 57f
4:30 14 16 mph 1007.3mb 57f
4:24 13 15 mph 1007.4mb 56f
4:18 14 15 mph 1007.5mb 57f
4:12 14 15 mph 1007.5mb 57f
4:06 11 14 mph 1007.5mb 57f
4:00 13 15 mph 1007.6mb 57f
3:54 14 15 mph 1007.5mb 57f
3:48 10
mph
1007.6mb 57f
3:42 9 10 mph 1007.6mb 57f
3:36 10 11 mph 1007.7mb 57f
3:30 10 11 mph 1007.8mb 57f
3:24 10 11 mph 1008mb 57f
3:18 10 11 mph 1008.1mb 57f
3:12 10 13 mph 1008.1mb 58f
3:06 11 14 mph 1008.1mb 58f
3:00 10 13 mph 1008.2mb 58f
2:54 10 13 mph 1008.2mb 58f
2:48 10 13 mph 1008.2mb 58f
2:42 10 13 mph 1008.2mb 58f
2:36 10 13 mph 1008.3mb 58f
2:30 9 10 mph 1008.5mb 58f
2:24 9 11 mph 1008.6mb 59f
2:18 9 10 mph 1008.6mb 59f
2:12 8 9 mph 1008.5mb 59f
2:06 7 8 mph 1008.6mb 59f
2:00 7 9 mph 1008.7mb 59f
1:54 6 8 mph 1008.7mb 59f
1:48 7 10 mph 1008.6mb 59f
1:42 10 14 mph 1008.6mb 60f
1:36 11 15 mph 1008.4mb 60f
1:30 9 11 mph 1008.3mb 60f
1:24 2 7 mph 1008.5mb 58f
1:18 3 6 mph 1008.4mb 58f
1:12 3 6 mph 1008.3mb 58f
1:06 5 6 mph 1008.2mb 58f
1:00 6 7 mph 1007.9mb 58f
12:54 6 7 mph 1008mb 58f
12:48 5 6 mph 1008mb 58f
12:42 5 7 mph 1008.1mb 58f
12:36 6
mph
1008mb 58f
12:30 3 5 mph 1008.1mb 58f
12:24 5 6 mph 1008.2mb 58f
12:18 6 8 mph 1008.2mb 58f
12:12 7 8 mph 1008.2mb 58f
12:06 7 8 mph 1008.2mb 59f
12:00 7 9 mph 1008.2mb 59f
jeu. 10/16 11:54 8 9 mph 1008.2mb 59f
11:48 9 10 mph 1008.1mb 60f
11:42 7 9 mph 1008.2mb 60f
11:36 8 11 mph 1008.2mb 59f
11:30 10 13 mph 1008.2mb 59f
11:24 10 14 mph 1008.2mb 60f
11:18 8 13 mph 1008.2mb 59f
11:12 9 11 mph 1008.2mb 60f
11:06 8 9 mph 1008.2mb 59f
11:00 9 13 mph 1008.2mb 59f
10:54 11 15 mph 1008.2mb 59f
10:48 14 16 mph 1008.2mb 59f
10:42 13 15 mph 1008.3mb 59f
10:36 13 15 mph 1008.3mb 59f
10:30 14 16 mph 1008.4mb 59f
10:24 14 15 mph 1008.5mb 59f
10:18 14 16 mph 1008.5mb 60f
10:12 14 15 mph 1008.6mb 60f
10:06 11 14 mph 1008.7mb 59f
10:00 10 11 mph 1008.7mb 59f
9:54 8 10 mph 1008.9mb 59f
9:48 8 13 mph 1009mb 58f
9:42 10 13 mph 1009.1mb 57f
9:36 11 14 mph 1009.2mb 58f
9:30 11 13 mph 1009.2mb 58f
9:24 10 11 mph 1009.4mb 57f
9:18 10
mph
1009.5mb 57f
9:12 10 11 mph 1009.6mb 57f
9:06 10 11 mph 1009.7mb 57f
9:00 9 10 mph 1009.7mb 57f
8:54 9 10 mph 1009.8mb 58f
8:48 8 9 mph 1009.9mb 58f
8:42 8 9 mph 1009.9mb 58f
8:36 8 9 mph 1010mb 59f
8:30  -  mph 1010mb 59f
8:24  -  mph 1010.1mb 59f
8:18 8
mph
1010.1mb 59f
8:12 7 8 mph 1010.3mb 59f
8:06 6
mph
1010.4mb 59f
8:00 6
mph
1010.5mb 59f
7:54 6 7 mph 1010.5mb 60f
7:48 6 7 mph 1010.5mb 60f
7:42 6 8 mph 1010.6mb 60f
7:36 7 8 mph 1010.6mb 60f
7:30 7 8 mph 1010.6mb 60f
7:24 8 9 mph 1010.6mb 60f
7:18 8 9 mph 1010.7mb 60f
7:12 8 9 mph 1010.7mb 60f
7:06 7 8 mph 1010.7mb 60f
7:00 7 8 mph 1010.7mb 60f
6:54 7 8 mph 1010.7mb 60f
6:48 7
mph
1010.7mb 60f
6:42 6 7 mph 1010.8mb 60f
6:36 7 8 mph 1010.9mb 60f
6:30 6 8 mph 1011.1mb 60f
6:24 7 8 mph 1011.2mb 60f
6:18 6 8 mph 1011.1mb 60f
6:12 6 7 mph 1011.1mb 60f
6:06 5 7 mph 1011.2mb 60f
6:00 5 7 mph 1011.2mb 60f
5:54 5 7 mph 1011.3mb 60f
5:48 6 8 mph 1011.4mb 61f
5:42 7 8 mph 1011.5mb 61f
5:36 5 6 mph 1011.5mb 61f
5:30 5 7 mph 1011.5mb 61f
5:24 6 9 mph 1011.6mb 61f
5:18 5 8 mph 1011.5mb 61f
5:12 6 9 mph 1011.6mb 61f
5:06 3 8 mph 1011.6mb 61f
5:00 1 9 mph 1011.7mb 62f
4:54 9 10 mph 1011.7mb 64f
4:48 9 10 mph 1011.6mb 64f
4:42 9 13 mph 1011.7mb 64f
4:36 10 13 mph 1011.8mb 64f
4:30 8 10 mph 1011.8mb 64f
4:24 8 11 mph 1011.9mb 64f
4:18 9 13 mph 1011.9mb 64f
4:12 11 14 mph 1011.8mb 64f
4:06 10 14 mph 1011.9mb 64f
4:00 13 15 mph 1012mb 64f
3:54 11 13 mph 1012.1mb 64f
3:48 11 13 mph 1012.1mb 64f
3:42 9 13 mph 1012.1mb 64f
3:36 10 14 mph 1012.1mb 64f
3:30 11 14 mph 1012.1mb 64f
3:24 8 10 mph 1012.1mb 64f
3:18 8 11 mph 1012.2mb 63f
3:12 10 14 mph 1012.2mb 64f
3:06 13 14 mph 1012.3mb 64f
3:00 10 13 mph 1012.4mb 63f
2:54 11 13 mph 1012.5mb 64f
2:48 13 15 mph 1012.6mb 64f
2:42 15 17 mph 1012.6mb 64f
2:36 13 15 mph 1012.6mb 63f
2:30 10 13 mph 1012.7mb 63f
2:24 11 15 mph 1012.6mb 63f
2:18 11 14 mph 1012.7mb 63f
2:12 10 13 mph 1012.7mb 63f
2:06 8 11 mph 1012.8mb 63f
2:00 10 13 mph 1012.7mb 63f
1:54 10 15 mph 1012.8mb 63f
1:48 11 14 mph 1012.8mb 63f
1:42 10 14 mph 1012.9mb 63f
1:36 10 15 mph 1013mb 63f
1:30 11 13 mph 1013.1mb 62f
1:24 10 13 mph 1013.2mb 63f
1:18 9 14 mph 1013.4mb 62f
1:12 10 14 mph 1013.6mb 62f
1:06 13 15 mph 1013.7mb 62f
1:00 10 14 mph 1013.8mb 62f
12:54 10 13 mph 1014mb 62f
12:48 8 16 mph 1014.2mb 62f
12:42 11 14 mph 1014.2mb 62f
12:36 11 14 mph 1014.2mb 62f
12:30 10 11 mph 1014.4mb 62f
12:24 10 13 mph 1014.4mb 61f
12:18 10 13 mph 1014.5mb 61f
12:12 8 10 mph 1014.5mb 61f
12:06 9 11 mph 1014.6mb 61f
12:00 7 9 mph 1014.6mb 60f
11:54 9 11 mph 1014.7mb 60f
11:48 10 11 mph 1014.7mb 60f
11:42 10 14 mph 1014.6mb 59f
11:36 11 14 mph 1014.6mb 59f
11:30 10 14 mph 1014.7mb 59f
11:24 13 14 mph 1014.8mb 58f
11:18 10 13 mph 1014.8mb 58f
11:12 11 13 mph 1014.8mb 58f
11:06 13 14 mph 1014.8mb 58f
11:00 11 14 mph 1014.8mb 57f
10:54 13 14 mph 1014.8mb 57f
10:48 13 14 mph 1014.8mb 57f
10:42 11 13 mph 1014.9mb 57f
10:36 11 13 mph 1014.9mb 56f
10:30 11 13 mph 1014.9mb 56f
10:24 11 13 mph 1015mb 56f
10:18 11
mph
1015.2mb 56f
10:12 11 13 mph 1015.1mb 56f
10:06 11 13 mph 1015.1mb 56f
10:00 10 13 mph 1015.1mb 55f
9:54 11 13 mph 1015.1mb 55f
9:48 10 13 mph 1015.1mb 55f
9:42 9 10 mph 1015.1mb 56f
9:36 9 11 mph 1015.1mb 55f
9:30 11 14 mph 1015mb 55f
9:24 13 14 mph 1015mb 55f
9:18 14 15 mph 1014.9mb 55f
9:12 14 15 mph 1014.8mb 55f
9:06 14 16 mph 1014.8mb 55f
9:00 15 17 mph 1014.8mb 55f
8:54 15 16 mph 1014.7mb 55f
8:48 14 16 mph 1014.7mb 55f
8:42 14 16 mph 1014.7mb 55f
8:36 13 15 mph 1014.6mb 55f
8:30 14
mph
1014.7mb 55f
8:24 13 14 mph 1014.7mb 55f
8:18 14 15 mph 1014.7mb 55f
8:12 14 15 mph 1014.7mb 54f
8:06 14 16 mph 1014.6mb 55f
8:00 13 14 mph 1014.6mb 55f
7:54 11 13 mph 1014.6mb 55f
7:48 11 13 mph 1014.6mb 55f
7:42 13 14 mph 1014.6mb 55f
7:36 14 15 mph 1014.6mb 55f
7:30 13 14 mph 1014.6mb 55f
7:24 11 13 mph 1014.6mb 55f
7:18 11 13 mph 1014.6mb 55f
7:12 11 13 mph 1014.6mb 55f
7:06 13 14 mph 1014.6mb 55f
7:00 11 13 mph 1014.6mb 55f
6:54 11 13 mph 1014.6mb 55f
6:48 11 13 mph 1014.6mb 55f
6:42 11 13 mph 1014.7mb 55f
6:36 10 11 mph 1014.7mb 55f
6:30 10 11 mph 1014.7mb 55f
6:24 10 11 mph 1014.7mb 55f
6:18 10 11 mph 1014.8mb 55f
6:12 10 11 mph 1014.8mb 55f
6:06 10 11 mph 1014.7mb 55f
6:00 10 11 mph 1014.7mb 55f
5:54 10 11 mph 1014.7mb 55f
5:48 10 11 mph 1014.7mb 55f